Time;durP1;ratioP1;P1;durP2;ratioP2;P2;SDS_P1;SDS_P2;PMS_P1;PMS_P2;Temp;Humidity;BMP_temperature;BMP_pressure;BME280_temperature;BME280_humidity;BME280_pressure;Samples;Min_cycle;Max_cycle;Signal;HPM_P1;HPM_P2
2022/03/15 00:02:18;;;;;;;4.23;3.83;;;;;;;5.90;99.61;99304.88;5053353;28;20257;-69
2022/03/15 00:04:45;;;;;;;7.77;4.80;;;;;;;5.91;99.84;99307.47;5053071;28;20211;-69
2022/03/15 00:07:13;;;;;;;7.47;4.70;;;;;;;5.92;99.91;99322.31;5053388;28;20227;-69
2022/03/15 00:09:40;;;;;;;6.97;4.60;;;;;;;5.89;99.57;99317.16;5052899;28;20254;-69
2022/03/15 00:12:08;;;;;;;5.10;4.60;;;;;;;5.87;99.76;99321.59;5053089;28;20211;-69
2022/03/15 00:14:37;;;;;;;9.57;4.70;;;;;;;5.78;100.00;99327.09;5052850;28;20218;-69
2022/03/15 00:17:05;;;;;;;5.77;4.93;;;;;;;5.76;99.93;99314.94;5051800;28;20268;-69
2022/03/15 00:19:32;;;;;;;9.00;5.47;;;;;;;5.81;99.90;99327.03;5052394;28;20218;-70
2022/03/15 00:21:58;;;;;;;5.97;4.87;;;;;;;5.77;100.00;99319.28;5052975;28;20575;-70
2022/03/15 00:24:25;;;;;;;5.17;4.43;;;;;;;5.75;100.00;99303.56;5052674;28;20216;-70
2022/03/15 00:26:53;;;;;;;8.87;5.10;;;;;;;5.70;100.00;99305.50;5053627;28;20229;-70
2022/03/15 00:29:23;;;;;;;8.57;5.27;;;;;;;5.70;100.00;99312.50;5052793;28;20670;-69
2022/03/15 00:31:49;;;;;;;8.00;5.20;;;;;;;5.66;100.00;99306.50;5052610;28;20748;-69
2022/03/15 00:34:17;;;;;;;7.97;4.97;;;;;;;5.70;100.00;99302.88;5055668;28;20218;-70
2022/03/15 00:36:44;;;;;;;7.10;5.10;;;;;;;5.69;100.00;99305.53;5070164;28;20219;-70
2022/03/15 00:39:10;;;;;;;9.93;5.13;;;;;;;5.64;100.00;99303.06;5056411;28;20215;-70
2022/03/15 00:41:36;;;;;;;5.90;4.80;;;;;;;5.67;100.00;99297.72;5055595;28;20672;-69
2022/03/15 00:44:03;;;;;;;5.87;5.37;;;;;;;5.69;100.00;99297.69;5054707;28;20229;-70
2022/03/15 00:46:30;;;;;;;8.67;5.00;;;;;;;5.62;100.00;99289.13;5056679;28;20221;-69
2022/03/15 00:48:56;;;;;;;5.63;4.57;;;;;;;5.61;100.00;99292.66;5056031;28;20237;-70
2022/03/15 00:51:24;;;;;;;6.37;4.33;;;;;;;5.63;100.00;99300.50;5056050;28;20590;-69
2022/03/15 00:53:50;;;;;;;6.00;4.67;;;;;;;5.66;100.00;99285.50;5056037;28;20237;-69
2022/03/15 00:56:19;;;;;;;7.53;5.23;;;;;;;5.68;100.00;99288.09;5056467;28;20600;-70
2022/03/15 00:58:45;;;;;;;6.83;4.90;;;;;;;5.67;100.00;99276.75;5055615;28;20217;-69
2022/03/15 01:01:12;;;;;;;4.83;4.30;;;;;;;5.72;100.00;99285.31;5055501;28;20242;-69
2022/03/15 01:03:38;;;;;;;8.43;4.97;;;;;;;5.74;100.00;99272.16;5055769;28;20226;-69
2022/03/15 01:06:05;;;;;;;7.00;4.60;;;;;;;5.75;100.00;99264.22;5056413;28;20210;-70
2022/03/15 01:08:33;;;;;;;5.23;4.50;;;;;;;5.75;100.00;99268.63;5054183;28;20255;-70
2022/03/15 01:11:00;;;;;;;5.83;4.30;;;;;;;5.79;100.00;99264.97;5055778;28;20218;-70
2022/03/15 01:13:26;;;;;;;5.00;4.37;;;;;;;5.78;99.42;99264.13;5055629;28;20222;-70
2022/03/15 01:15:53;;;;;;;6.67;4.10;;;;;;;5.75;99.04;99266.00;5056217;28;20216;-69
2022/03/15 01:18:20;;;;;;;5.50;5.00;;;;;;;5.71;99.35;99265.25;5055564;28;20230;-70
2022/03/15 01:20:47;;;;;;;6.03;4.30;;;;;;;5.70;100.00;99266.16;5054975;28;20215;-70
2022/03/15 01:23:13;;;;;;;6.37;4.53;;;;;;;5.71;100.00;99261.75;5055616;28;20218;-70
2022/03/15 01:25:41;;;;;;;5.77;4.37;;;;;;;5.73;100.00;99263.44;5053767;28;20215;-70
2022/03/15 01:28:08;;;;;;;5.33;4.27;;;;;;;5.76;100.00;99268.59;5055591;28;20249;-70
2022/03/15 01:30:35;;;;;;;8.83;4.63;;;;;;;5.77;100.00;99261.56;5055479;28;20226;-70
2022/03/15 01:33:02;;;;;;;7.77;4.40;;;;;;;5.71;100.00;99262.63;5054948;28;20218;-70
2022/03/15 01:35:28;;;;;;;5.63;3.90;;;;;;;5.65;100.00;99262.81;5052027;28;20211;-70
2022/03/15 01:37:55;;;;;;;4.90;3.90;;;;;;;5.61;99.90;99250.69;5055182;28;20218;-70
2022/03/15 01:40:21;;;;;;;6.03;4.57;;;;;;;5.53;99.61;99250.09;5055137;28;20213;-70
2022/03/15 01:42:49;;;;;;;5.07;3.83;;;;;;;5.53;99.86;99239.59;5055147;28;20270;-69
2022/03/15 01:45:16;;;;;;;7.43;4.27;;;;;;;5.56;99.69;99236.88;5055202;28;20570;-70
2022/03/15 01:47:44;;;;;;;5.10;3.80;;;;;;;5.54;98.92;99235.19;5055130;28;20210;-70
2022/03/15 01:50:10;;;;;;;4.73;4.27;;;;;;;5.49;98.57;99232.72;5054805;28;20251;-70
2022/03/15 01:52:37;;;;;;;6.73;4.63;;;;;;;5.42;99.30;99227.72;5054546;28;20244;-69
2022/03/15 01:55:05;;;;;;;6.17;4.33;;;;;;;5.36;99.35;99228.78;5055232;28;20226;-69
2022/03/15 01:57:32;;;;;;;6.07;4.67;;;;;;;5.37;99.72;99227.03;5054718;28;20214;-70
2022/03/15 02:00:00;;;;;;;5.13;4.50;;;;;;;5.38;100.00;99216.47;5053864;28;20218;-70
2022/03/15 02:02:26;;;;;;;6.27;4.63;;;;;;;5.38;99.64;99221.72;5052455;28;20240;-70
2022/03/15 02:04:53;;;;;;;6.33;4.70;;;;;;;5.32;99.74;99221.91;5055134;28;20219;-70
2022/03/15 02:07:19;;;;;;;5.97;4.47;;;;;;;5.20;99.29;99217.03;5054393;28;20746;-70
2022/03/15 02:09:46;;;;;;;10.00;5.30;;;;;;;5.06;99.73;99229.72;5054727;28;20635;-70
2022/03/15 02:12:12;;;;;;;6.27;4.90;;;;;;;5.00;99.78;99232.53;5054443;28;20213;-70
2022/03/15 02:14:39;;;;;;;5.67;4.87;;;;;;;5.01;100.00;99243.88;5054694;28;20226;-70
2022/03/15 02:17:06;;;;;;;8.10;5.37;;;;;;;5.01;100.00;99230.78;5054800;28;20229;-68
2022/03/15 02:19:33;;;;;;;7.57;5.90;;;;;;;5.05;100.00;99228.00;5053661;28;20590;-70
2022/03/15 02:22:01;;;;;;;7.13;6.30;;;;;;;5.09;100.00;99234.88;5054608;28;20211;-69
2022/03/15 02:24:28;;;;;;;8.57;7.10;;;;;;;5.18;100.00;99234.59;5054119;28;20227;-70
2022/03/15 02:26:54;;;;;;;7.53;6.40;;;;;;;5.15;100.00;99229.47;5052103;28;20594;-69
2022/03/15 02:29:21;;;;;;;10.60;6.57;;;;;;;5.15;100.00;99224.22;5054430;28;20241;-70
2022/03/15 02:31:48;;;;;;;8.27;6.00;;;;;;;5.19;100.00;99215.34;5054315;28;20585;-70
2022/03/15 02:34:14;;;;;;;7.50;5.70;;;;;;;5.20;100.00;99209.19;5054183;28;20222;-69
2022/03/15 02:36:41;;;;;;;7.63;5.20;;;;;;;5.22;100.00;99217.00;5054696;28;20234;-70
2022/03/15 02:39:08;;;;;;;8.33;5.63;;;;;;;5.31;100.00;99220.19;5054221;28;20584;-70
2022/03/15 02:41:35;;;;;;;8.87;5.90;;;;;;;5.43;100.00;99213.75;5054095;28;20225;-70
2022/03/15 02:44:01;;;;;;;9.17;5.60;;;;;;;5.46;100.00;99214.50;5054056;28;20213;-70
2022/03/15 02:46:29;;;;;;;6.37;5.20;;;;;;;5.45;100.00;99207.50;5054348;28;20213;-70
2022/03/15 02:48:55;;;;;;;5.80;5.07;;;;;;;5.47;100.00;99200.47;5053961;28;20246;-70
2022/03/15 02:51:22;;;;;;;5.93;5.33;;;;;;;5.41;100.00;99195.44;5053982;28;20219;-70
2022/03/15 02:53:52;;;;;;;6.63;5.33;;;;;;;5.41;100.00;99190.19;5052269;28;20229;-70
2022/03/15 02:56:21;;;;;;;7.90;5.40;;;;;;;5.45;100.00;99194.41;5053606;28;20249;-70
2022/03/15 02:58:47;;;;;;;9.73;5.20;;;;;;;5.44;100.00;99190.06;5053847;28;20221;-71
2022/03/15 03:01:14;;;;;;;6.10;5.23;;;;;;;5.45;100.00;99194.41;5053436;28;20582;-70
2022/03/15 03:03:40;;;;;;;7.97;5.87;;;;;;;5.44;100.00;99203.19;5053764;28;20233;-70
2022/03/15 03:06:07;;;;;;;6.63;5.50;;;;;;;5.45;100.00;99196.19;5054288;28;20213;-70
2022/03/15 03:08:34;;;;;;;6.20;5.43;;;;;;;5.44;100.00;99200.56;5053550;28;20227;-70
2022/03/15 03:11:03;;;;;;;5.97;5.23;;;;;;;5.48;100.00;99203.94;5053689;28;20213;-70
2022/03/15 03:13:31;;;;;;;5.87;5.10;;;;;;;5.43;100.00;99195.38;5053599;28;20222;-70
2022/03/15 03:16:00;;;;;;;6.83;5.13;;;;;;;5.43;100.00;99204.09;5054347;28;20219;-70
2022/03/15 03:18:28;;;;;;;6.90;5.23;;;;;;;5.46;100.00;99195.28;5052519;28;20680;-70
2022/03/15 03:20:55;;;;;;;5.73;4.97;;;;;;;5.37;100.00;99192.97;5052470;28;20225;-69
2022/03/15 03:23:22;;;;;;;6.07;5.40;;;;;;;5.38;100.00;99199.91;5053360;28;20221;-69
2022/03/15 03:25:48;;;;;;;6.13;5.13;;;;;;;5.38;100.00;99194.66;5054001;28;20229;-69
2022/03/15 03:28:15;;;;;;;7.33;5.57;;;;;;;5.37;100.00;99199.03;5053482;28;20218;-69
2022/03/15 03:30:47;;;;;;;7.20;5.53;;;;;;;5.38;100.00;99195.50;5053333;28;20252;-69
2022/03/15 03:33:14;;;;;;;6.13;5.07;;;;;;;5.45;100.00;99197.03;5053425;28;20240;-69
2022/03/15 03:35:40;;;;;;;7.40;5.40;;;;;;;5.47;100.00;99187.38;5053866;28;20214;-69
2022/03/15 03:38:07;;;;;;;5.93;4.77;;;;;;;5.48;100.00;99181.22;5053354;28;20236;-69
2022/03/15 03:40:33;;;;;;;5.90;5.30;;;;;;;5.54;100.00;99174.91;5053295;28;20223;-69
2022/03/15 03:43:00;;;;;;;6.03;5.27;;;;;;;5.54;100.00;99181.00;5052939;28;20220;-69
2022/03/15 03:45:27;;;;;;;7.93;5.53;;;;;;;5.50;100.00;99174.13;5052067;28;20225;-69
2022/03/15 03:47:55;;;;;;;6.17;4.70;;;;;;;5.50;100.00;99168.91;5053254;28;20226;-70
2022/03/15 03:50:21;;;;;;;6.90;5.37;;;;;;;5.48;100.00;99162.84;5053124;28;20258;-70
2022/03/15 03:52:48;;;;;;;7.13;5.40;;;;;;;5.48;100.00;99169.84;5053152;28;20223;-70
2022/03/15 03:55:14;;;;;;;7.53;5.50;;;;;;;5.48;100.00;99164.59;5053702;28;20219;-69
2022/03/15 03:57:41;;;;;;;6.93;5.43;;;;;;;5.50;100.00;99165.44;5053185;28;20220;-70
2022/03/15 04:00:08;;;;;;;6.20;5.60;;;;;;;5.46;100.00;99162.06;5053280;28;20215;-70
2022/03/15 04:02:35;;;;;;;6.43;5.40;;;;;;;5.50;100.00;99168.91;5052781;28;20242;-70
2022/03/15 04:05:03;;;;;;;6.43;5.50;;;;;;;5.47;100.00;99158.53;5053672;28;20295;-70
2022/03/15 04:07:29;;;;;;;6.80;5.43;;;;;;;5.51;100.00;99154.03;5054965;28;20578;-70
2022/03/15 04:09:56;;;;;;;6.80;4.93;;;;;;;5.55;100.00;99156.50;5056678;28;20234;-68
2022/03/15 04:12:23;;;;;;;8.87;6.20;;;;;;;5.60;100.00;99154.59;5055317;28;20219;-69
2022/03/15 04:14:51;;;;;;;6.70;5.90;;;;;;;5.59;100.00;99152.88;5057382;28;20225;-69
2022/03/15 04:17:17;;;;;;;7.20;5.43;;;;;;;5.61;100.00;99158.91;5056796;28;20597;-68
2022/03/15 04:19:44;;;;;;;7.40;5.77;;;;;;;5.54;100.00;99154.78;5055857;28;20217;-69
2022/03/15 04:22:12;;;;;;;6.27;5.67;;;;;;;5.53;100.00;99166.19;5056779;28;20221;-69
2022/03/15 04:24:38;;;;;;;7.67;5.37;;;;;;;5.52;100.00;99181.97;5055295;28;20214;-69
2022/03/15 04:27:04;;;;;;;7.57;5.97;;;;;;;5.48;100.00;99168.09;5056587;28;20217;-70
2022/03/15 04:29:31;;;;;;;6.50;5.73;;;;;;;5.50;100.00;99165.44;5056524;28;20249;-69
2022/03/15 04:31:57;;;;;;;6.97;5.17;;;;;;;5.46;100.00;99156.81;5056320;28;20218;-69
2022/03/15 04:34:25;;;;;;;6.63;5.60;;;;;;;5.46;100.00;99148.94;5056972;28;20219;-69
2022/03/15 04:36:51;;;;;;;9.67;5.53;;;;;;;5.47;100.00;99150.66;5054296;28;20227;-70
2022/03/15 04:39:19;;;;;;;8.60;6.70;;;;;;;5.47;100.00;99153.28;5056208;28;20219;-69
2022/03/15 04:41:46;;;;;;;6.77;5.70;;;;;;;5.42;100.00;99155.19;5056656;28;20218;-69
2022/03/15 04:44:13;;;;;;;7.40;5.90;;;;;;;5.38;100.00;99150.94;5056802;28;20240;-70
2022/03/15 04:46:40;;;;;;;6.90;5.33;;;;;;;5.34;100.00;99149.34;5056032;28;20727;-70
2022/03/15 04:49:06;;;;;;;8.57;6.00;;;;;;;5.35;100.00;99143.19;5056022;28;20217;-69
2022/03/15 04:51:33;;;;;;;7.20;5.23;;;;;;;5.40;100.00;99151.78;5056246;28;20221;-70
2022/03/15 04:53:59;;;;;;;6.20;5.30;;;;;;;5.38;100.00;99142.25;5056504;28;20597;-70
2022/03/15 04:56:27;;;;;;;7.23;5.80;;;;;;;5.42;100.00;99139.47;5042903;28;20242;-69
2022/03/15 04:58:54;;;;;;;7.83;5.60;;;;;;;5.40;100.00;99130.81;5056106;28;20217;-69
2022/03/15 05:01:20;;;;;;;7.63;5.27;;;;;;;5.41;100.00;99126.41;5057423;28;20252;-69
2022/03/15 05:03:47;;;;;;;5.43;4.93;;;;;;;5.41;100.00;99127.25;5056051;28;20221;-68
2022/03/15 05:06:13;;;;;;;9.23;5.37;;;;;;;5.41;100.00;99129.00;5058466;28;20580;-69
2022/03/15 05:08:39;;;;;;;6.67;4.97;;;;;;;5.42;100.00;99138.59;5058955;28;20217;-68
2022/03/15 05:11:08;;;;;;;5.67;4.60;;;;;;;5.46;100.00;99141.09;5058372;28;20246;-68
2022/03/15 05:13:39;;;;;;;7.07;4.87;;;;;;;5.50;100.00;99136.59;5058402;28;20218;-68
2022/03/15 05:16:07;;;;;;;5.93;4.60;;;;;;;5.48;100.00;99134.00;5045617;28;20267;-70
2022/03/15 05:18:34;;;;;;;7.00;4.67;;;;;;;5.49;100.00;99140.97;5057787;28;20207;-71
2022/03/15 05:21:01;;;;;;;7.60;4.63;;;;;;;5.49;100.00;99130.47;5055152;28;20585;-70
2022/03/15 05:23:28;;;;;;;6.83;4.57;;;;;;;5.49;100.00;99138.34;5055961;28;20225;-71
2022/03/15 05:25:55;;;;;;;6.10;4.63;;;;;;;5.41;100.00;99137.75;5041800;28;20224;-70
2022/03/15 05:28:21;;;;;;;7.50;4.40;;;;;;;5.36;100.00;99133.53;5055260;28;20244;-70
2022/03/15 05:30:49;;;;;;;6.70;4.20;;;;;;;5.33;100.00;99131.91;5053801;28;20261;-69
2022/03/15 05:33:16;;;;;;;6.33;4.27;;;;;;;5.33;100.00;99136.28;5055375;28;20229;-69
2022/03/15 05:35:42;;;;;;;5.57;4.00;;;;;;;5.34;100.00;99131.00;5055301;28;20662;-69
2022/03/15 05:38:09;;;;;;;6.23;4.50;;;;;;;5.35;100.00;99137.06;5055143;28;20245;-70
2022/03/15 05:40:35;;;;;;;6.17;4.47;;;;;;;5.34;100.00;99136.25;5055321;28;20246;-69
2022/03/15 05:43:02;;;;;;;6.33;5.03;;;;;;;5.30;100.00;99137.22;5055249;28;20213;-69
2022/03/15 05:45:29;;;;;;;5.73;4.70;;;;;;;5.31;100.00;99133.69;5055659;28;20218;-69
2022/03/15 05:47:57;;;;;;;5.77;5.10;;;;;;;5.31;100.00;99140.72;5055055;28;20227;-69
2022/03/15 05:50:23;;;;;;;8.03;5.70;;;;;;;5.27;100.00;99134.72;5055056;28;20253;-69
2022/03/15 05:52:50;;;;;;;7.00;5.70;;;;;;;5.23;100.00;99133.09;5054653;28;20224;-69
2022/03/15 05:55:17;;;;;;;7.37;5.43;;;;;;;5.27;100.00;99133.84;5053530;28;20224;-69
2022/03/15 05:57:43;;;;;;;6.40;5.40;;;;;;;5.25;100.00;99128.66;5054919;28;20600;-70
2022/03/15 06:00:11;;;;;;;8.53;5.17;;;;;;;5.24;100.00;99129.56;5054437;28;20224;-70
2022/03/15 06:02:37;;;;;;;6.50;5.27;;;;;;;5.21;100.00;99131.44;5054818;28;20267;-70
2022/03/15 06:05:06;;;;;;;9.03;5.37;;;;;;;5.24;100.00;99129.56;5054570;28;20221;-70
2022/03/15 06:07:33;;;;;;;9.03;5.60;;;;;;;5.23;100.00;99127.88;5054754;28;20373;-70
2022/03/15 06:09:59;;;;;;;7.70;5.10;;;;;;;5.31;100.00;99120.59;5054179;28;20245;-69
2022/03/15 06:12:26;;;;;;;7.10;5.77;;;;;;;5.36;100.00;99118.69;5054236;28;20214;-69
2022/03/15 06:14:53;;;;;;;8.07;5.47;;;;;;;5.45;100.00;99118.38;5055075;28;20264;-70
2022/03/15 06:17:20;;;;;;;7.03;5.57;;;;;;;5.52;100.00;99119.91;5054526;28;20222;-69
2022/03/15 06:19:46;;;;;;;8.40;6.40;;;;;;;5.59;100.00;99121.41;5053886;28;20217;-69
2022/03/15 06:22:14;;;;;;;10.13;6.63;;;;;;;5.69;100.00;99122.78;5052574;28;20220;-69
2022/03/15 06:24:41;;;;;;;8.43;6.87;;;;;;;5.69;100.00;99121.94;5054794;28;20221;-68
2022/03/15 06:27:07;;;;;;;10.90;6.50;;;;;;;5.74;100.00;99125.28;5054338;28;20325;-69
2022/03/15 06:29:35;;;;;;;8.53;5.70;;;;;;;5.82;100.00;99123.28;5054153;28;20582;-69
2022/03/15 06:32:01;;;;;;;8.70;5.50;;;;;;;5.95;100.00;99120.19;5053409;28;20248;-68
2022/03/15 06:34:28;;;;;;;11.13;6.47;;;;;;;6.06;100.00;99128.53;5054436;28;20598;-68
2022/03/15 06:36:54;;;;;;;9.03;5.40;;;;;;;6.13;100.00;99119.53;5053925;28;20217;-70
2022/03/15 06:39:22;;;;;;;7.80;5.80;;;;;;;6.14;100.00;99126.47;5054198;28;20214;-70
2022/03/15 06:41:50;;;;;;;7.77;5.53;;;;;;;6.19;100.00;99123.69;5054228;28;20209;-68
2022/03/15 06:44:17;;;;;;;6.60;5.37;;;;;;;6.17;100.00;99121.09;5053718;28;20530;-68
2022/03/15 06:46:43;;;;;;;6.70;6.10;;;;;;;6.20;100.00;99121.00;5052160;28;20221;-70
2022/03/15 06:49:11;;;;;;;7.80;5.30;;;;;;;6.26;100.00;99118.16;5053954;28;20234;-69
2022/03/15 06:51:37;;;;;;;8.27;5.43;;;;;;;6.32;100.00;99124.94;5053596;28;20244;-70
2022/03/15 06:54:03;;;;;;;11.00;6.23;;;;;;;6.41;100.00;99116.75;5054308;28;20226;-71
2022/03/15 06:56:34;;;;;;;7.07;5.60;;;;;;;6.49;100.00;99122.56;5053783;28;20221;-71
2022/03/15 06:59:01;;;;;;;7.83;5.67;;;;;;;6.51;100.00;99126.84;5053689;28;20227;-71
2022/03/15 07:01:27;;;;;;;7.80;5.83;;;;;;;6.56;100.00;99114.41;5053896;28;20240;-70
2022/03/15 07:03:54;;;;;;;7.10;5.53;;;;;;;6.61;100.00;99112.47;5054422;28;20591;-69
2022/03/15 07:06:20;;;;;;;9.87;6.10;;;;;;;6.70;100.00;99112.09;5053731;28;20219;-69
2022/03/15 07:08:47;;;;;;;7.43;5.47;;;;;;;6.66;100.00;99121.00;5053323;28;20219;-70
2022/03/15 07:11:13;;;;;;;6.53;5.33;;;;;;;6.65;100.00;99119.31;5053196;28;20235;-68
2022/03/15 07:13:41;;;;;;;6.93;5.27;;;;;;;6.67;100.00;99122.75;5052103;28;20211;-70
2022/03/15 07:16:07;;;;;;;7.30;5.20;;;;;;;6.73;100.00;99127.72;5053493;28;20246;-69
2022/03/15 07:18:34;;;;;;;9.73;5.47;;;;;;;6.79;100.00;99119.63;5053397;28;20212;-69
2022/03/15 07:21:00;;;;;;;7.70;5.73;;;;;;;6.87;100.00;99114.94;5052810;28;20590;-69
2022/03/15 07:23:27;;;;;;;12.80;5.60;;;;;;;6.95;100.00;99109.41;5053716;28;20579;-69
2022/03/15 07:25:53;;;;;;;7.17;5.40;;;;;;;6.95;100.00;99107.59;5039894;28;20626;-69
2022/03/15 07:28:20;;;;;;;8.47;6.43;;;;;;;7.00;100.00;99110.03;5053485;28;20349;-68
2022/03/15 07:30:48;;;;;;;9.60;5.40;;;;;;;7.05;99.94;99105.47;5053517;28;20309;-68
2022/03/15 07:33:15;;;;;;;8.73;5.90;;;;;;;7.07;99.56;99101.88;5053379;28;20226;-68
2022/03/15 07:35:41;;;;;;;10.47;6.07;;;;;;;7.01;99.28;99106.53;5053542;28;20579;-68
2022/03/15 07:38:08;;;;;;;9.50;5.73;;;;;;;7.00;100.00;99116.19;5053191;28;20219;-68
2022/03/15 07:40:34;;;;;;;9.83;6.07;;;;;;;6.99;100.00;99106.59;5051313;28;20260;-69
2022/03/15 07:43:01;;;;;;;7.90;5.47;;;;;;;7.07;100.00;99111.50;5055791;28;20215;-69
2022/03/15 07:45:28;;;;;;;7.70;5.70;;;;;;;7.07;100.00;99101.88;5057853;28;20222;-68
2022/03/15 07:47:55;;;;;;;8.07;5.60;;;;;;;7.13;100.00;99095.50;5057367;28;20231;-68
2022/03/15 07:50:22;;;;;;;10.30;5.87;;;;;;;7.08;100.00;99093.06;5055725;28;20241;-71
2022/03/15 07:52:51;;;;;;;8.77;5.83;;;;;;;7.13;100.00;99088.47;5055447;28;20298;-69
2022/03/15 07:55:18;;;;;;;8.23;5.50;;;;;;;7.14;99.65;99084.09;5056197;28;20214;-69
2022/03/15 07:57:44;;;;;;;8.93;5.67;;;;;;;7.23;100.00;99081.94;5055771;28;20219;-69
2022/03/15 08:00:11;;;;;;;7.93;5.53;;;;;;;7.32;98.84;99090.31;5055813;28;20583;-68
2022/03/15 08:02:38;;;;;;;8.30;5.27;;;;;;;7.47;98.15;99086.19;5055934;28;20239;-69
2022/03/15 08:05:06;;;;;;;9.70;5.50;;;;;;;7.58;95.90;99078.69;5052753;28;20237;-71
2022/03/15 08:07:35;;;;;;;8.27;5.63;;;;;;;7.72;95.25;99087.69;5053380;28;20229;-71
2022/03/15 08:10:02;;;;;;;8.97;5.40;;;;;;;7.83;95.39;99080.22;5054289;28;20761;-72
2022/03/15 08:12:29;;;;;;;8.17;5.40;;;;;;;7.94;96.23;99071.84;5054795;28;20210;-70
2022/03/15 08:14:55;;;;;;;8.33;5.30;;;;;;;8.09;95.29;99076.44;5053237;28;20250;-71
2022/03/15 08:17:22;;;;;;;7.37;5.27;;;;;;;8.20;94.93;99074.22;5053374;28;20215;-70
2022/03/15 08:19:48;;;;;;;8.40;5.70;;;;;;;8.31;93.81;99077.19;5067294;28;20204;-71
2022/03/15 08:22:16;;;;;;;7.47;5.27;;;;;;;8.38;92.55;99074.22;5064042;28;20223;-71
2022/03/15 08:24:43;;;;;;;8.00;5.03;;;;;;;8.46;91.17;99072.09;5067258;28;20230;-71
2022/03/15 08:27:09;;;;;;;8.60;6.10;;;;;;;8.54;91.64;99074.38;5068400;28;20223;-69
2022/03/15 08:29:36;;;;;;;9.23;5.17;;;;;;;8.59;89.80;99064.50;5067319;28;20569;-69
2022/03/15 08:32:03;;;;;;;7.97;4.97;;;;;;;8.67;90.10;99059.72;5062732;28;20236;-70
2022/03/15 08:34:29;;;;;;;8.90;5.67;;;;;;;8.82;88.62;99061.63;5066711;28;20302;-69
2022/03/15 08:36:56;;;;;;;7.87;4.90;;;;;;;8.93;88.77;99056.72;5067663;28;20211;-71
2022/03/15 08:39:24;;;;;;;7.17;4.90;;;;;;;9.07;89.10;99065.63;5068176;28;20246;-70
2022/03/15 08:41:51;;;;;;;10.40;5.43;;;;;;;9.21;87.69;99051.78;5061795;28;20216;-69
2022/03/15 08:44:19;;;;;;;9.07;5.00;;;;;;;9.35;84.96;99062.50;5054385;28;20208;-71
2022/03/15 08:46:48;;;;;;;8.50;5.20;;;;;;;9.40;84.55;99057.84;5053548;28;20304;-71
2022/03/15 08:49:15;;;;;;;7.60;4.77;;;;;;;9.48;84.54;99055.72;5055272;28;20583;-70
2022/03/15 08:51:42;;;;;;;5.73;4.63;;;;;;;9.57;84.91;99066.66;5052131;28;20708;-71
2022/03/15 08:54:09;;;;;;;8.57;5.23;;;;;;;9.68;83.17;99059.03;5056513;28;20684;-70
2022/03/15 08:56:41;;;;;;;5.43;4.67;;;;;;;9.71;82.44;99052.72;5046967;28;20216;-70
2022/03/15 08:59:09;;;;;;;7.63;5.40;;;;;;;9.79;80.94;99053.22;5053476;28;20507;-71
2022/03/15 09:01:37;;;;;;;8.60;5.30;;;;;;;9.82;80.30;99050.41;5054860;28;20232;-71
2022/03/15 09:04:04;;;;;;;8.83;5.50;;;;;;;9.93;79.68;99054.22;5057532;28;20230;-70
2022/03/15 09:06:30;;;;;;;8.53;5.17;;;;;;;9.95;80.08;99054.97;5054844;28;20218;-72
2022/03/15 09:08:57;;;;;;;8.00;5.20;;;;;;;9.98;78.59;99061.88;5055040;28;20219;-71
2022/03/15 09:11:24;;;;;;;8.50;5.37;;;;;;;9.87;78.66;99058.94;5055356;28;20248;-70
2022/03/15 09:13:53;;;;;;;7.43;5.77;;;;;;;9.78;79.40;99064.72;5057681;28;20219;-69
2022/03/15 09:16:20;;;;;;;6.17;5.30;;;;;;;9.77;80.31;99062.97;5052270;28;20281;-70
2022/03/15 09:18:47;;;;;;;7.23;5.10;;;;;;;9.83;80.16;99046.81;5046482;28;20247;-70
2022/03/15 09:21:14;;;;;;;7.60;5.00;;;;;;;9.85;79.94;99039.69;5063291;28;20225;-69
2022/03/15 09:23:41;;;;;;;8.30;5.43;;;;;;;9.95;79.81;99040.91;5056497;28;20223;-70
2022/03/15 09:26:07;;;;;;;8.07;4.83;;;;;;;10.08;79.60;99047.28;5066956;28;20222;-70
2022/03/15 09:28:34;;;;;;;10.00;5.00;;;;;;;10.15;78.73;99046.88;5065124;28;20288;-70
2022/03/15 09:31:02;;;;;;;7.90;5.10;;;;;;;10.25;77.98;99044.59;5063737;28;20358;-69
2022/03/15 09:33:29;;;;;;;8.33;5.20;;;;;;;10.31;77.08;99044.28;5066093;28;20246;-69
2022/03/15 09:35:56;;;;;;;8.20;5.37;;;;;;;10.27;77.48;99033.03;5059441;28;20211;-68
2022/03/15 09:38:23;;;;;;;8.03;5.67;;;;;;;10.17;78.02;99041.53;5066857;28;20242;-69
2022/03/15 09:40:52;;;;;;;9.10;5.00;;;;;;;10.06;79.31;99025.38;5063781;28;20224;-70
2022/03/15 09:43:22;;;;;;;8.20;5.60;;;;;;;10.02;79.82;99023.81;5065274;28;20690;-70
2022/03/15 09:45:50;;;;;;;7.20;5.50;;;;;;;9.97;80.65;99015.28;5066474;28;20210;-69
2022/03/15 09:48:20;;;;;;;7.83;5.63;;;;;;;9.94;81.37;99007.53;5066741;28;20223;-68
2022/03/15 09:50:49;;;;;;;7.27;5.87;;;;;;;9.85;82.84;99002.75;5060409;28;20242;-68
2022/03/15 09:53:17;;;;;;;8.60;5.73;;;;;;;9.79;83.15;98998.63;5055778;28;20211;-69
2022/03/15 09:55:45;;;;;;;7.37;5.33;;;;;;;9.73;83.71;98998.09;5058506;28;20222;-70
2022/03/15 09:58:12;;;;;;;7.50;5.20;;;;;;;9.67;84.17;98993.13;5061401;28;20204;-70
2022/03/15 10:00:41;;;;;;;6.10;5.50;;;;;;;9.55;84.58;98988.50;5063071;28;20310;-70
2022/03/15 10:03:08;;;;;;;9.20;5.47;;;;;;;9.49;85.17;98980.88;5060655;28;20660;-70
2022/03/15 10:05:36;;;;;;;7.00;5.57;;;;;;;9.43;85.67;98973.28;5063353;28;20211;-69
2022/03/15 10:08:03;;;;;;;8.47;5.40;;;;;;;9.33;86.46;98974.69;5066236;28;20238;-72
2022/03/15 10:10:30;;;;;;;8.83;6.37;;;;;;;9.39;86.81;98966.44;5059347;28;20208;-71
2022/03/15 10:12:57;;;;;;;7.93;5.27;;;;;;;9.39;87.01;98969.09;5061550;28;20239;-71
2022/03/15 10:15:25;;;;;;;8.17;5.20;;;;;;;9.51;85.66;98955.25;5062848;28;20508;-70
2022/03/15 10:17:55;;;;;;;9.30;5.83;;;;;;;9.64;84.73;98951.91;5061522;28;20215;-71
2022/03/15 10:20:28;;;;;;;9.17;5.60;;;;;;;9.75;84.41;98943.41;5055206;28;20224;-69
2022/03/15 10:22:58;;;;;;;8.80;5.30;;;;;;;9.87;83.69;98938.34;5038152;28;20258;-71
2022/03/15 10:25:25;;;;;;;7.90;4.90;;;;;;;9.96;83.35;98931.69;5061106;28;20583;-71
2022/03/15 10:27:54;;;;;;;8.90;5.40;;;;;;;9.99;84.30;98926.25;5061071;28;20215;-71
2022/03/15 10:30:21;;;;;;;10.23;6.07;;;;;;;9.95;85.10;98924.72;5053553;28;20212;-72
2022/03/15 10:32:48;;;;;;;7.83;5.50;;;;;;;10.00;84.04;98912.13;5060362;28;20227;-71
2022/03/15 10:35:18;;;;;;;7.00;5.00;;;;;;;9.95;84.18;98914.16;5066915;28;20215;-71
2022/03/15 10:37:45;;;;;;;7.70;4.97;;;;;;;9.96;82.98;98915.84;5064030;28;20223;-72
2022/03/15 10:40:14;;;;;;;7.93;4.97;;;;;;;9.96;83.81;98898.25;5064033;28;20323;-72
2022/03/15 10:42:43;;;;;;;7.47;4.83;;;;;;;10.00;83.34;98896.28;5066787;28;20218;-73
2022/03/15 10:45:17;;;;;;;13.33;4.70;;;;;;;10.02;84.32;98894.41;5066676;28;20215;-71
2022/03/15 10:47:51;;;;;;;8.23;5.40;;;;;;;9.84;86.32;98895.44;5064132;28;20215;-72
2022/03/15 10:50:18;;;;;;;7.00;4.73;;;;;;;9.72;91.44;98894.28;5064757;28;20698;-72
2022/03/15 10:52:46;;;;;;;8.47;5.53;;;;;;;9.59;93.23;98895.00;5066570;28;20232;-72
2022/03/15 10:55:16;;;;;;;7.00;5.33;;;;;;;9.41;95.65;98896.84;5065723;28;20689;-75
2022/03/15 10:57:48;;;;;;;7.77;5.60;;;;;;;9.32;96.85;98896.47;5061400;28;20220;-73
2022/03/15 11:00:16;;;;;;;7.00;5.70;;;;;;;9.32;98.22;98904.38;5045738;28;20241;-74
2022/03/15 11:02:44;;;;;;;6.43;5.50;;;;;;;9.24;97.26;98896.03;5066291;28;20250;-73
2022/03/15 11:05:10;;;;;;;7.87;5.97;;;;;;;9.21;98.44;98894.41;5064860;28;20218;-74
2022/03/15 11:07:38;;;;;;;10.17;5.93;;;;;;;9.36;98.84;98883.03;5062547;28;20219;-75
2022/03/15 11:10:12;;;;;;;8.83;6.23;;;;;;;9.48;99.27;98881.56;5066415;28;20222;-76
2022/03/15 11:12:56;;;;;;;7.53;5.70;;;;;;;9.47;100.00;98871.91;5066194;28;20239;-76
2022/03/15 11:15:28;;;;;;;8.77;6.10;;;;;;;9.35;100.00;98865.50;5062628;28;20216;-75
2022/03/15 11:17:58;;;;;;;11.00;7.00;;;;;;;9.17;100.00;98868.28;5047121;28;20465;-75
2022/03/15 11:20:25;;;;;;;10.47;7.23;;;;;;;9.06;100.00;98857.41;5061478;28;20562;-75
2022/03/15 11:22:54;;;;;;;11.07;6.80;;;;;;;8.93;100.00;98848.44;5064503;28;20672;-75
2022/03/15 11:25:22;;;;;;;9.63;6.53;;;;;;;8.89;100.00;98841.59;5062890;28;20664;-74
2022/03/15 11:27:54;;;;;;;13.67;7.83;;;;;;;8.95;100.00;98836.03;5066244;28;20226;-75
2022/03/15 11:30:21;;;;;;;9.60;6.57;;;;;;;8.94;100.00;98836.97;5065924;28;20207;-74
2022/03/15 11:32:49;;;;;;;10.87;6.77;;;;;;;8.90;100.00;98824.84;5063304;28;20730;-74
2022/03/15 11:35:19;;;;;;;8.80;7.30;;;;;;;8.91;100.00;98827.41;5061093;28;20216;-74
2022/03/15 11:37:48;;;;;;;9.67;7.00;;;;;;;8.93;100.00;98819.44;5065760;28;20223;-74